createdAt,value
2018-08-24T00:00:09.298Z,18.10
2018-08-24T00:02:38.242Z,18.10
2018-08-24T00:05:06.750Z,18.00
2018-08-24T00:07:35.224Z,18.00
2018-08-24T00:10:03.624Z,18.00
2018-08-24T00:12:31.968Z,18.00
2018-08-24T00:15:00.390Z,18.00
2018-08-24T00:17:29.462Z,18.00
2018-08-24T00:19:57.820Z,18.00
2018-08-24T00:22:26.206Z,18.00
2018-08-24T00:24:54.584Z,17.90
2018-08-24T00:27:22.938Z,17.90
2018-08-24T00:29:51.871Z,17.90
2018-08-24T00:32:20.319Z,17.80
2018-08-24T00:34:48.774Z,17.90
2018-08-24T00:37:17.121Z,17.90
2018-08-24T00:39:45.592Z,17.80
2018-08-24T00:42:14.425Z,17.80
2018-08-24T00:44:43.007Z,17.80
2018-08-24T00:47:11.768Z,17.80
2018-08-24T00:49:41.076Z,17.80
2018-08-24T00:52:09.704Z,17.80
2018-08-24T00:54:38.074Z,17.80
2018-08-24T00:57:06.596Z,17.80
2018-08-24T00:59:34.972Z,17.80
2018-08-24T01:02:03.956Z,17.80
2018-08-24T01:04:33.483Z,17.70
2018-08-24T01:07:06.886Z,17.70
2018-08-24T01:09:35.796Z,17.70
2018-08-24T01:12:10.061Z,17.80
2018-08-24T01:14:39.538Z,17.70
2018-08-24T01:17:13.220Z,17.70
2018-08-24T01:19:42.148Z,17.70
2018-08-24T01:22:10.630Z,17.60
2018-08-24T01:24:38.978Z,17.60
2018-08-24T01:27:08.060Z,17.60
2018-08-24T01:29:37.587Z,17.60
2018-08-24T01:32:06.506Z,17.60
2018-08-24T01:34:35.811Z,17.60
2018-08-24T01:37:04.514Z,17.60
2018-08-24T01:39:33.254Z,17.60
2018-08-24T01:42:02.466Z,17.60
2018-08-24T01:44:31.015Z,17.60
2018-08-24T01:46:59.370Z,17.50
2018-08-24T01:49:27.772Z,17.50
2018-08-24T01:51:56.138Z,17.50
2018-08-24T01:54:24.569Z,17.50
2018-08-24T01:56:52.957Z,17.50
2018-08-24T01:59:21.295Z,17.50
2018-08-24T02:01:49.631Z,17.50
2018-08-24T02:04:18.047Z,17.40
2018-08-24T02:06:46.413Z,17.40
2018-08-24T02:09:14.788Z,17.30
2018-08-24T02:11:43.220Z,17.30
2018-08-24T02:14:15.840Z,17.30
2018-08-24T02:16:44.513Z,17.30
2018-08-24T02:19:16.227Z,17.30
2018-08-24T02:21:49.771Z,17.30
2018-08-24T02:24:18.250Z,17.30
2018-08-24T02:26:47.095Z,17.20
2018-08-24T02:29:15.415Z,17.30
2018-08-24T02:31:50.574Z,17.30
2018-08-24T02:34:19.065Z,17.10
2018-08-24T02:36:47.537Z,17.10
2018-08-24T02:39:18.109Z,17.00
2018-08-24T02:41:46.573Z,17.10
2018-08-24T02:44:15.687Z,17.10
2018-08-24T02:46:44.665Z,17.10
2018-08-24T02:49:13.291Z,17.00
2018-08-24T02:51:41.636Z,17.00
2018-08-24T02:54:10.001Z,16.90
2018-08-24T02:56:38.394Z,16.90
2018-08-24T02:59:06.780Z,16.80
2018-08-24T03:01:35.193Z,16.70
2018-08-24T03:04:03.602Z,16.70
2018-08-24T03:06:32.026Z,16.70
2018-08-24T03:09:00.418Z,16.70
2018-08-24T03:11:28.859Z,16.70
2018-08-24T03:13:57.212Z,16.70
2018-08-24T03:16:26.382Z,16.70
2018-08-24T03:18:54.617Z,16.70
2018-08-24T03:21:22.991Z,16.70
2018-08-24T03:23:51.386Z,16.70
2018-08-24T03:26:19.789Z,16.70
2018-08-24T03:28:48.205Z,16.70
2018-08-24T03:31:16.520Z,16.80
2018-08-24T03:33:44.893Z,16.90
2018-08-24T03:36:13.273Z,16.90
2018-08-24T03:38:41.632Z,16.90
2018-08-24T03:41:10.151Z,16.90
2018-08-24T03:43:39.225Z,16.80
2018-08-24T03:46:07.655Z,16.70
2018-08-24T03:48:36.008Z,16.60
2018-08-24T03:51:04.479Z,16.50
2018-08-24T03:53:32.886Z,16.40
2018-08-24T03:56:01.247Z,16.40
2018-08-24T03:58:29.588Z,16.40
2018-08-24T04:00:57.956Z,16.40
2018-08-24T04:03:26.672Z,16.30
2018-08-24T04:05:55.109Z,16.40
2018-08-24T04:08:23.461Z,16.40
2018-08-24T04:10:51.949Z,16.40
2018-08-24T04:13:20.366Z,16.50
2018-08-24T04:15:48.713Z,16.50
2018-08-24T04:18:17.997Z,16.50
2018-08-24T04:20:46.410Z,16.50
2018-08-24T04:23:14.788Z,16.40
2018-08-24T04:25:43.195Z,16.30
2018-08-24T04:28:11.482Z,16.30
2018-08-24T04:30:39.854Z,16.30
2018-08-24T04:33:08.716Z,16.30
2018-08-24T04:35:37.128Z,16.30
2018-08-24T04:38:05.736Z,16.20
2018-08-24T04:40:34.115Z,16.20
2018-08-24T04:43:02.514Z,16.20
2018-08-24T04:45:31.265Z,16.10
2018-08-24T04:47:59.580Z,16.10
2018-08-24T04:50:28.022Z,16.10
2018-08-24T04:52:56.444Z,16.10
2018-08-24T04:55:25.386Z,16.10
2018-08-24T04:57:53.712Z,16.10
2018-08-24T05:00:22.092Z,16.10
2018-08-24T05:02:50.472Z,16.10
2018-08-24T05:05:18.850Z,16.10
2018-08-24T05:07:47.225Z,16.10
2018-08-24T05:10:15.568Z,16.20
2018-08-24T05:12:44.373Z,16.10
2018-08-24T05:15:12.700Z,16.20
2018-08-24T05:17:41.052Z,16.20
2018-08-24T05:20:09.386Z,16.10
2018-08-24T05:22:37.711Z,16.10
2018-08-24T05:25:06.564Z,16.20
2018-08-24T05:27:38.617Z,16.20
2018-08-24T05:30:07.192Z,16.20
2018-08-24T05:32:35.536Z,16.20
2018-08-24T05:35:03.964Z,16.20
2018-08-24T05:37:32.332Z,16.30
2018-08-24T05:40:00.673Z,16.40
2018-08-24T05:42:29.139Z,16.40
2018-08-24T05:44:57.538Z,16.50
2018-08-24T05:47:25.915Z,16.60
2018-08-24T05:49:54.288Z,16.70
2018-08-24T05:52:22.626Z,16.70
2018-08-24T05:54:50.996Z,16.80
2018-08-24T05:57:19.361Z,16.90
2018-08-24T05:59:47.880Z,17.00
2018-08-24T06:02:16.315Z,17.00
2018-08-24T06:04:44.653Z,17.10
2018-08-24T06:07:13.004Z,17.30
2018-08-24T06:09:42.026Z,17.30
2018-08-24T06:12:10.411Z,17.30
2018-08-24T06:14:38.822Z,17.40
2018-08-24T06:17:12.589Z,17.40
2018-08-24T06:19:40.962Z,17.40
2018-08-24T06:22:09.309Z,17.40
2018-08-24T06:24:37.770Z,17.30
2018-08-24T06:27:06.110Z,17.30
2018-08-24T06:29:34.930Z,17.30
2018-08-24T06:32:03.720Z,17.30
2018-08-24T06:34:32.106Z,17.30
2018-08-24T06:37:01.054Z,17.30
2018-08-24T06:39:29.416Z,17.20
2018-08-24T06:41:57.810Z,17.20
2018-08-24T06:44:26.108Z,17.20
2018-08-24T06:46:54.418Z,17.10
2018-08-24T06:49:22.790Z,17.10
2018-08-24T06:51:51.122Z,17.10
2018-08-24T06:54:19.500Z,17.10
2018-08-24T06:56:48.599Z,17.10
2018-08-24T06:59:17.023Z,17.10
2018-08-24T07:01:45.403Z,17.10
2018-08-24T07:04:13.790Z,17.10
2018-08-24T07:06:42.381Z,17.00
2018-08-24T07:09:11.012Z,16.90
2018-08-24T07:11:39.405Z,16.90
2018-08-24T07:14:07.767Z,16.80
2018-08-24T07:16:36.110Z,16.70
2018-08-24T07:19:04.512Z,16.60
2018-08-24T07:21:32.904Z,16.60
2018-08-24T07:24:01.288Z,16.60
2018-08-24T07:26:29.659Z,16.50
2018-08-24T07:28:58.022Z,16.30
2018-08-24T07:31:26.370Z,16.30
2018-08-24T07:33:54.811Z,16.10
2018-08-24T07:36:23.194Z,16.10
2018-08-24T07:38:51.660Z,16.10
2018-08-24T07:41:20.096Z,16.10
2018-08-24T07:43:48.437Z,16.20
2018-08-24T07:46:16.743Z,16.30
2018-08-24T07:48:45.131Z,16.30
2018-08-24T07:51:13.529Z,16.30
2018-08-24T07:53:41.921Z,16.30
2018-08-24T07:56:10.259Z,16.20
2018-08-24T07:58:38.633Z,16.00
2018-08-24T08:01:07.050Z,16.00
2018-08-24T08:03:35.442Z,16.10
2018-08-24T08:06:03.795Z,16.10
2018-08-24T08:08:32.173Z,16.10
2018-08-24T08:11:00.536Z,16.10
2018-08-24T08:13:28.866Z,16.10
2018-08-24T08:15:57.214Z,16.00
2018-08-24T08:18:25.655Z,15.90
2018-08-24T08:20:54.016Z,15.90
2018-08-24T08:23:22.910Z,15.90
2018-08-24T08:25:51.246Z,15.90
2018-08-24T08:28:19.588Z,15.60
2018-08-24T08:30:48.629Z,15.40
2018-08-24T08:33:16.988Z,15.40
2018-08-24T08:35:45.328Z,15.30
2018-08-24T08:38:14.170Z,15.40
2018-08-24T08:40:42.582Z,15.40
2018-08-24T08:43:10.954Z,15.30
2018-08-24T08:45:39.306Z,15.40
2018-08-24T08:48:11.116Z,15.50
2018-08-24T08:50:40.534Z,15.60
2018-08-24T08:53:08.868Z,15.70
2018-08-24T08:55:37.290Z,15.70
2018-08-24T08:58:05.668Z,15.70
2018-08-24T09:00:34.126Z,15.70
2018-08-24T09:03:02.522Z,15.80
2018-08-24T09:05:30.943Z,15.80
2018-08-24T09:07:59.286Z,15.70
2018-08-24T09:10:27.640Z,15.50
2018-08-24T09:12:56.041Z,15.60
2018-08-24T09:15:24.368Z,15.40
2018-08-24T09:17:58.030Z,15.60
2018-08-24T09:20:31.607Z,15.80
2018-08-24T09:23:05.430Z,15.90
2018-08-24T09:25:39.083Z,15.90
2018-08-24T09:28:12.772Z,16.00
2018-08-24T09:30:44.654Z,16.00
2018-08-24T09:33:13.000Z,16.00
2018-08-24T09:35:41.339Z,15.80
2018-08-24T09:38:09.697Z,15.90
2018-08-24T09:40:43.341Z,15.80
2018-08-24T09:43:17.043Z,16.00
2018-08-24T09:45:45.393Z,16.20
2018-08-24T09:48:18.961Z,16.20
2018-08-24T09:50:52.572Z,16.40
2018-08-24T09:53:26.372Z,16.40
2018-08-24T09:55:55.404Z,16.30
2018-08-24T09:58:23.756Z,16.50
2018-08-24T10:00:57.422Z,16.70
2018-08-24T10:03:31.116Z,16.80
2018-08-24T10:06:04.812Z,16.80
2018-08-24T10:08:38.533Z,16.80
2018-08-24T10:11:06.898Z,16.80
2018-08-24T10:13:35.284Z,16.70
2018-08-24T10:16:03.701Z,16.80
2018-08-24T10:18:32.126Z,16.70
2018-08-24T10:21:00.627Z,16.80
2018-08-24T10:23:28.995Z,16.90
2018-08-24T10:25:57.350Z,17.10
2018-08-24T10:28:25.861Z,17.10
2018-08-24T10:30:54.304Z,17.20
2018-08-24T10:33:22.677Z,17.10
2018-08-24T10:35:51.059Z,17.30
2018-08-24T10:38:19.473Z,17.50
2018-08-24T10:40:48.054Z,17.80
2018-08-24T10:43:16.637Z,18.10
2018-08-24T10:45:45.059Z,18.40
2018-08-24T10:48:13.485Z,18.50
2018-08-24T10:50:42.021Z,18.60
2018-08-24T10:53:10.409Z,18.50
2018-08-24T10:55:38.793Z,18.40
2018-08-24T10:58:07.205Z,18.40
2018-08-24T11:00:35.549Z,18.50
2018-08-24T11:03:03.915Z,18.60
2018-08-24T11:05:32.407Z,18.50
2018-08-24T11:08:00.768Z,18.70
2018-08-24T11:10:29.123Z,19.00
2018-08-24T11:12:57.547Z,19.20
2018-08-24T11:15:25.901Z,19.40
2018-08-24T11:18:06.857Z,19.20
2018-08-24T11:20:36.153Z,19.00
2018-08-24T11:23:04.680Z,18.80
2018-08-24T11:25:32.968Z,19.10
2018-08-24T11:28:01.363Z,19.00
2018-08-24T11:30:29.849Z,19.10
2018-08-24T11:32:58.759Z,19.50
2018-08-24T11:35:28.126Z,19.40
2018-08-24T11:37:56.403Z,19.70
2018-08-24T11:40:24.765Z,20.00
2018-08-24T11:42:53.144Z,20.40
2018-08-24T11:45:21.605Z,20.40
2018-08-24T11:47:50.062Z,20.40
2018-08-24T11:50:18.441Z,20.40
2018-08-24T11:52:46.872Z,20.60
2018-08-24T11:55:15.228Z,20.60
2018-08-24T11:57:44.252Z,20.70
2018-08-24T12:00:12.667Z,20.50
2018-08-24T12:02:41.039Z,20.70
2018-08-24T12:05:09.410Z,20.70
2018-08-24T12:07:37.814Z,20.90
2018-08-24T12:10:06.273Z,20.50
2018-08-24T12:12:34.711Z,20.60
2018-08-24T12:15:03.077Z,20.70
2018-08-24T12:17:33.933Z,20.80
2018-08-24T12:20:02.343Z,20.60
2018-08-24T12:22:30.761Z,20.50
2018-08-24T12:24:59.183Z,20.40
2018-08-24T12:27:27.546Z,20.60
2018-08-24T12:29:56.027Z,20.70
2018-08-24T12:32:24.500Z,20.80
2018-08-24T12:34:52.974Z,20.80
2018-08-24T12:37:21.286Z,20.70
2018-08-24T12:39:49.687Z,20.70
2018-08-24T12:42:18.078Z,20.50
2018-08-24T12:44:46.613Z,20.70
2018-08-24T12:47:15.001Z,20.70
2018-08-24T12:49:43.370Z,20.60
2018-08-24T12:52:11.917Z,20.60
2018-08-24T12:54:40.305Z,20.40
2018-08-24T12:57:08.724Z,20.30
2018-08-24T12:59:37.116Z,20.30
2018-08-24T13:02:05.629Z,19.90
2018-08-24T13:04:34.098Z,19.90
2018-08-24T13:07:02.468Z,19.80
2018-08-24T13:09:30.841Z,19.90
2018-08-24T13:11:59.697Z,19.70
2018-08-24T13:14:28.115Z,19.80
2018-08-24T13:16:56.494Z,19.80
2018-08-24T13:19:24.945Z,20.00
2018-08-24T13:21:53.351Z,20.10
2018-08-24T13:24:21.740Z,20.40
2018-08-24T13:26:50.105Z,20.40
2018-08-24T13:29:18.530Z,20.30
2018-08-24T13:31:46.900Z,20.10
2018-08-24T13:34:15.805Z,19.90
2018-08-24T13:36:44.864Z,19.90
2018-08-24T13:39:13.220Z,19.90
2018-08-24T13:41:41.745Z,20.10
2018-08-24T13:44:10.155Z,20.10
2018-08-24T13:46:38.516Z,20.20
2018-08-24T13:49:06.914Z,20.10
2018-08-24T13:51:35.330Z,20.00
2018-08-24T13:54:03.717Z,19.90
2018-08-24T13:56:32.147Z,19.80
2018-08-24T13:59:00.504Z,19.80
2018-08-24T14:01:28.903Z,20.00
2018-08-24T14:03:57.293Z,20.00
2018-08-24T14:06:25.753Z,20.00
2018-08-24T14:08:54.121Z,20.00
2018-08-24T14:11:22.466Z,20.00
2018-08-24T14:13:50.825Z,20.10
2018-08-24T14:16:19.179Z,20.10
2018-08-24T14:18:47.591Z,20.20
2018-08-24T14:21:15.974Z,20.30
2018-08-24T14:23:44.351Z,20.20
2018-08-24T14:26:13.336Z,20.10
2018-08-24T14:28:41.748Z,20.20
2018-08-24T14:31:10.226Z,20.20
2018-08-24T14:33:38.610Z,20.30
2018-08-24T14:36:07.763Z,20.30
2018-08-24T14:38:36.144Z,20.20
2018-08-24T14:41:04.572Z,20.20
2018-08-24T14:43:35.213Z,20.00
2018-08-24T14:46:03.614Z,20.10
2018-08-24T14:48:32.304Z,20.10
2018-08-24T14:51:00.645Z,20.20
2018-08-24T14:53:29.364Z,20.30
2018-08-24T14:55:57.704Z,20.10
2018-08-24T14:58:26.109Z,20.10
2018-08-24T15:00:54.525Z,20.10
2018-08-24T15:03:23.019Z,20.10
2018-08-24T15:05:51.390Z,20.10
2018-08-24T15:08:20.403Z,20.10
2018-08-24T15:10:48.808Z,20.10
2018-08-24T15:13:17.266Z,20.00
2018-08-24T15:15:45.644Z,20.00
2018-08-24T15:18:14.110Z,19.90
2018-08-24T15:20:42.477Z,20.10
2018-08-24T15:23:11.163Z,20.10
2018-08-24T15:25:39.436Z,20.00
2018-08-24T15:28:07.824Z,19.90
2018-08-24T15:30:36.216Z,19.90
2018-08-24T15:33:04.626Z,20.00
2018-08-24T15:35:33.144Z,20.00
2018-08-24T15:38:01.505Z,20.00
2018-08-24T15:40:30.112Z,19.90
2018-08-24T15:42:58.539Z,20.00
2018-08-24T15:45:27.017Z,19.90
2018-08-24T15:47:55.468Z,19.80
2018-08-24T15:50:23.908Z,19.70
2018-08-24T15:52:52.269Z,19.80
2018-08-24T15:55:20.643Z,20.00
2018-08-24T15:57:49.034Z,20.00
2018-08-24T16:00:17.435Z,20.00
2018-08-24T16:02:45.854Z,20.00
2018-08-24T16:05:14.257Z,19.90
2018-08-24T16:07:42.627Z,19.70
2018-08-24T16:10:11.069Z,19.60
2018-08-24T16:12:39.423Z,19.70
2018-08-24T16:15:08.349Z,19.60
2018-08-24T16:17:36.719Z,19.50
2018-08-24T16:20:05.549Z,19.60
2018-08-24T16:22:33.964Z,19.60
2018-08-24T16:25:02.287Z,19.60
2018-08-24T16:27:33.062Z,19.50
2018-08-24T16:30:01.609Z,19.50
2018-08-24T16:32:29.977Z,19.30
2018-08-24T16:34:58.329Z,19.20
2018-08-24T16:37:26.748Z,19.20
2018-08-24T16:39:55.143Z,19.30
2018-08-24T16:42:23.548Z,19.30
2018-08-24T16:44:51.894Z,19.30
2018-08-24T16:47:20.218Z,19.40
2018-08-24T16:49:48.550Z,19.50
2018-08-24T16:52:16.890Z,19.50
2018-08-24T16:54:45.244Z,19.60
2018-08-24T16:57:13.644Z,19.40
2018-08-24T16:59:42.040Z,19.40
2018-08-24T17:02:11.014Z,19.40
2018-08-24T17:04:39.386Z,19.40
2018-08-24T17:07:07.727Z,19.30
2018-08-24T17:09:36.137Z,19.10
2018-08-24T17:12:04.525Z,19.00
2018-08-24T17:14:32.907Z,18.90
2018-08-24T17:17:01.305Z,18.80
2018-08-24T17:19:29.628Z,18.80
2018-08-24T17:21:58.013Z,18.70
2018-08-24T17:24:26.394Z,18.70
2018-08-24T17:26:54.763Z,18.70
2018-08-24T17:29:23.122Z,18.60
2018-08-24T17:31:51.487Z,18.50
2018-08-24T17:34:19.823Z,18.40
2018-08-24T17:36:48.170Z,18.40
2018-08-24T17:39:16.545Z,18.40
2018-08-24T17:41:44.940Z,18.40
2018-08-24T17:44:13.336Z,18.30
2018-08-24T17:46:41.703Z,18.30
2018-08-24T17:49:10.104Z,18.20
2018-08-24T17:51:38.482Z,18.20
2018-08-24T17:54:06.890Z,18.10
2018-08-24T17:56:35.248Z,18.10
2018-08-24T17:59:04.109Z,18.00
2018-08-24T18:01:32.487Z,18.00
2018-08-24T18:04:01.046Z,17.90
2018-08-24T18:06:29.414Z,17.80
2018-08-24T18:08:57.773Z,17.80
2018-08-24T18:11:26.130Z,17.80
2018-08-24T18:13:54.512Z,17.70
2018-08-24T18:16:22.891Z,17.70
2018-08-24T18:18:51.834Z,17.60
2018-08-24T18:21:20.304Z,17.60
2018-08-24T18:23:48.674Z,17.50
2018-08-24T18:26:17.050Z,17.50
2018-08-24T18:28:45.388Z,17.50
2018-08-24T18:31:13.817Z,17.40
2018-08-24T18:33:42.156Z,17.40
2018-08-24T18:36:10.508Z,17.40
2018-08-24T18:38:38.964Z,17.30
2018-08-24T18:41:07.320Z,17.30
2018-08-24T18:43:35.683Z,17.30
2018-08-24T18:46:04.524Z,17.30
2018-08-24T18:48:32.934Z,17.20
2018-08-24T18:51:01.270Z,17.00
2018-08-24T18:53:29.644Z,17.00
2018-08-24T18:55:58.013Z,17.00
2018-08-24T18:58:26.398Z,16.90
2018-08-24T19:00:54.794Z,16.90
2018-08-24T19:03:23.161Z,16.90
2018-08-24T19:05:51.951Z,16.80
2018-08-24T19:08:20.302Z,16.70
2018-08-24T19:10:54.168Z,16.60
2018-08-24T19:13:22.523Z,16.60
2018-08-24T19:15:50.876Z,16.60
2018-08-24T19:25:21.876Z,16.60
2018-08-24T19:27:56.212Z,16.30
2018-08-24T19:30:29.795Z,16.30
2018-08-24T19:32:58.169Z,16.20
2018-08-24T19:35:27.106Z,16.20
2018-08-24T19:37:55.446Z,16.10
2018-08-24T19:40:29.081Z,16.00
2018-08-24T19:42:57.555Z,15.90
2018-08-24T19:45:25.911Z,15.80
2018-08-24T19:47:59.582Z,15.80
2018-08-24T19:50:27.934Z,15.70
2018-08-24T19:52:56.307Z,15.70
2018-08-24T19:55:24.636Z,15.60
2018-08-24T19:57:58.214Z,15.60
2018-08-24T20:00:26.856Z,15.60
2018-08-24T20:02:55.194Z,15.50
2018-08-24T20:05:23.537Z,15.50
2018-08-24T20:07:57.339Z,15.40
2018-08-24T20:10:26.396Z,15.40
2018-08-24T20:12:54.756Z,15.40
2018-08-24T20:15:28.367Z,15.30
2018-08-24T20:17:56.734Z,15.20
2018-08-24T20:20:31.641Z,15.20
2018-08-24T20:23:00.033Z,15.10
2018-08-24T20:25:28.400Z,15.10
2018-08-24T20:27:56.779Z,15.10
2018-08-24T20:30:25.156Z,15.00
2018-08-24T20:32:53.625Z,15.00
2018-08-24T20:35:21.966Z,15.00
2018-08-24T20:37:50.331Z,15.00
2018-08-24T20:40:18.670Z,15.00
2018-08-24T20:42:47.032Z,14.90
2018-08-24T20:45:15.820Z,14.90
2018-08-24T20:47:44.175Z,14.90
2018-08-24T20:50:12.522Z,14.80
2018-08-24T20:52:40.923Z,14.80
2018-08-24T20:55:09.313Z,14.70
2018-08-24T20:57:37.609Z,14.70
2018-08-24T21:00:06.356Z,14.70
2018-08-24T21:02:34.671Z,14.60
2018-08-24T21:05:03.096Z,14.60
2018-08-24T21:07:31.502Z,14.60
2018-08-24T21:09:59.888Z,14.70
2018-08-24T21:12:28.359Z,14.60
2018-08-24T21:14:56.751Z,14.60
2018-08-24T21:17:25.065Z,14.60
2018-08-24T21:19:53.432Z,14.60
2018-08-24T21:22:21.756Z,14.60
2018-08-24T21:24:50.170Z,14.50
2018-08-24T21:27:18.673Z,14.50
2018-08-24T21:29:47.024Z,14.40
2018-08-24T21:32:15.452Z,14.40
2018-08-24T21:34:43.842Z,14.30
2018-08-24T21:37:12.177Z,14.20
2018-08-24T21:39:40.564Z,14.20
2018-08-24T21:42:08.961Z,14.10
2018-08-24T21:44:37.268Z,14.00
2018-08-24T21:47:05.640Z,13.90
2018-08-24T21:49:34.043Z,13.80
2018-08-24T21:52:03.137Z,13.80
2018-08-24T21:54:31.580Z,13.70
2018-08-24T21:56:59.906Z,13.70
2018-08-24T21:59:28.223Z,13.70
2018-08-24T22:01:56.632Z,13.60
2018-08-24T22:04:24.986Z,13.50
2018-08-24T22:06:53.361Z,13.50
2018-08-24T22:09:21.873Z,13.50
2018-08-24T22:11:50.255Z,13.40
2018-08-24T22:14:18.605Z,13.40
2018-08-24T22:16:46.956Z,13.40
2018-08-24T22:19:15.311Z,13.40
2018-08-24T22:21:43.656Z,13.40
2018-08-24T22:24:11.974Z,13.40
2018-08-24T22:26:40.329Z,13.40
2018-08-24T22:29:08.710Z,13.50
2018-08-24T22:31:37.081Z,13.50
2018-08-24T22:34:05.478Z,13.50
2018-08-24T22:36:33.833Z,13.40
2018-08-24T22:39:02.190Z,13.40
2018-08-24T22:41:30.617Z,13.40
2018-08-24T22:43:58.946Z,13.40
2018-08-24T22:46:27.294Z,13.30
2018-08-24T22:48:55.712Z,13.30
2018-08-24T22:51:24.086Z,13.20
2018-08-24T22:53:52.468Z,13.30
2018-08-24T22:56:20.816Z,13.30
2018-08-24T22:58:49.169Z,13.40
2018-08-24T23:01:17.510Z,13.50
2018-08-24T23:03:45.862Z,13.50
2018-08-24T23:06:14.207Z,13.50
2018-08-24T23:08:42.550Z,13.50
2018-08-24T23:11:10.935Z,13.50
2018-08-24T23:13:39.394Z,13.50
2018-08-24T23:16:07.790Z,13.50
2018-08-24T23:18:36.136Z,13.50
2018-08-24T23:21:04.544Z,13.50
2018-08-24T23:23:32.905Z,13.50
2018-08-24T23:26:01.280Z,13.50
2018-08-24T23:28:29.637Z,13.50
2018-08-24T23:30:57.957Z,13.50
2018-08-24T23:33:26.343Z,13.50
2018-08-24T23:35:54.678Z,13.50
2018-08-24T23:38:23.086Z,13.50
2018-08-24T23:40:51.440Z,13.50
2018-08-24T23:43:19.804Z,13.50
2018-08-24T23:45:48.132Z,13.50
2018-08-24T23:48:16.536Z,13.40
2018-08-24T23:50:44.895Z,13.40
2018-08-24T23:53:13.369Z,13.30
2018-08-24T23:55:41.839Z,13.40
2018-08-24T23:58:10.210Z,13.40
